Time;durP1;ratioP1;P1;durP2;ratioP2;P2;SDS_P1;SDS_P2;PMS_P1;PMS_P2;Temp;Humidity;BMP_temperature;BMP_pressure;BME280_temperature;BME280_humidity;BME280_pressure;Samples;Min_cycle;Max_cycle;Signal;HPM_P1;HPM_P2
2024/03/07 00:00:16;;;;;;;19.73;12.30;;;3.30;99.90;;;;;;4939880;28;20038;-58
2024/03/07 00:02:43;;;;;;;28.63;13.77;;;3.30;99.90;;;;;;4920987;28;20030;-53
2024/03/07 00:05:09;;;;;;;22.50;12.10;;;3.30;99.90;;;;;;4942616;28;20114;-52
2024/03/07 00:07:34;;;;;;;23.20;12.88;;;3.40;99.90;;;;;;4937358;28;20120;-58
2024/03/07 00:10:03;;;;;;;22.70;12.73;;;3.40;99.90;;;;;;4942816;28;20108;-59
2024/03/07 00:12:29;;;;;;;23.17;12.65;;;3.40;99.90;;;;;;4963808;28;20022;-50
2024/03/07 00:14:55;;;;;;;17.48;11.80;;;3.40;99.90;;;;;;4957189;28;20104;-49
2024/03/07 00:17:22;;;;;;;23.17;13.20;;;3.40;99.90;;;;;;4925823;28;20117;-52
2024/03/07 00:19:48;;;;;;;20.73;12.15;;;3.40;99.90;;;;;;4926273;28;20108;-52
2024/03/07 00:22:14;;;;;;;20.02;12.45;;;3.40;99.90;;;;;;4970245;28;21445;-53
2024/03/07 00:24:40;;;;;;;22.90;10.98;;;3.40;99.90;;;;;;4968280;28;20022;-54
2024/03/07 00:27:06;;;;;;;24.67;12.68;;;3.40;99.90;;;;;;4936130;28;20026;-50
2024/03/07 00:29:35;;;;;;;23.90;12.90;;;3.40;99.90;;;;;;4933790;28;20041;-56
2024/03/07 00:32:01;;;;;;;23.73;13.20;;;3.40;99.90;;;;;;4937579;28;20073;-53
2024/03/07 00:34:26;;;;;;;22.92;11.75;;;3.50;99.90;;;;;;4947505;28;20033;-52
2024/03/07 00:36:52;;;;;;;26.73;13.48;;;3.50;99.90;;;;;;4976649;28;20034;-50
2024/03/07 00:39:19;;;;;;;23.90;13.32;;;3.50;99.90;;;;;;4930899;28;20033;-54
2024/03/07 00:41:45;;;;;;;21.15;12.38;;;3.50;99.90;;;;;;4965214;28;20088;-51
2024/03/07 00:44:11;;;;;;;23.70;12.80;;;3.50;99.90;;;;;;4933473;28;20038;-51
2024/03/07 00:46:36;;;;;;;24.08;12.65;;;3.60;99.90;;;;;;4949698;28;20022;-57
2024/03/07 00:49:03;;;;;;;28.88;13.75;;;3.60;99.90;;;;;;4944544;28;20030;-57
2024/03/07 00:51:28;;;;;;;27.15;14.27;;;3.60;99.90;;;;;;4966496;28;20031;-51
2024/03/07 00:53:54;;;;;;;18.70;12.73;;;3.60;99.90;;;;;;4956256;28;20044;-53
2024/03/07 00:56:21;;;;;;;23.58;13.57;;;3.60;99.90;;;;;;4943304;28;20022;-53
2024/03/07 00:58:50;;;;;;;23.95;13.05;;;3.60;99.90;;;;;;4929796;28;20034;-54
2024/03/07 01:01:17;;;;;;;22.77;12.40;;;3.60;99.90;;;;;;4938866;28;21523;-53
2024/03/07 01:03:42;;;;;;;23.92;13.27;;;3.60;99.90;;;;;;4966691;28;20022;-51
2024/03/07 01:06:09;;;;;;;21.55;13.50;;;3.60;99.90;;;;;;4951911;28;20245;-50
2024/03/07 01:08:36;;;;;;;24.10;13.60;;;3.70;99.90;;;;;;4900048;28;20758;-50
2024/03/07 01:11:09;;;;;;;22.70;13.73;;;3.70;99.90;;;;;;4931291;28;20108;-51
2024/03/07 01:13:38;;;;;;;29.55;14.35;;;3.60;99.90;;;;;;4929379;28;20034;-58
2024/03/07 01:16:04;;;;;;;25.48;13.77;;;3.70;99.90;;;;;;4951210;28;20492;-52
2024/03/07 01:18:29;;;;;;;22.75;12.60;;;3.70;99.90;;;;;;4969419;28;20028;-53
2024/03/07 01:20:55;;;;;;;30.25;15.27;;;3.70;99.90;;;;;;4945256;28;20057;-52
2024/03/07 01:23:21;;;;;;;24.27;14.27;;;3.70;99.90;;;;;;4928214;28;20033;-50
2024/03/07 01:25:46;;;;;;;23.52;13.27;;;3.70;99.90;;;;;;4909618;28;20018;-52
2024/03/07 01:28:14;;;;;;;21.75;13.98;;;3.70;99.90;;;;;;4925238;28;20030;-50
2024/03/07 01:30:39;;;;;;;28.58;15.00;;;3.70;99.90;;;;;;4978672;28;20018;-52
2024/03/07 01:33:05;;;;;;;25.88;14.63;;;3.70;99.90;;;;;;4942326;28;20095;-50
2024/03/07 01:35:30;;;;;;;29.38;16.00;;;3.70;99.90;;;;;;4935867;28;20038;-52
2024/03/07 01:37:56;;;;;;;27.85;14.55;;;3.60;99.90;;;;;;4890872;28;21708;-53
2024/03/07 01:40:22;;;;;;;21.50;14.40;;;3.60;99.90;;;;;;4925544;28;21793;-54
2024/03/07 01:42:50;;;;;;;25.13;14.38;;;3.70;99.90;;;;;;4970302;28;20125;-53
2024/03/07 01:45:16;;;;;;;26.30;12.20;;;3.60;99.90;;;;;;4945590;28;20135;-58
2024/03/07 01:47:41;;;;;;;22.15;12.50;;;3.60;99.90;;;;;;4927233;28;20030;-52
2024/03/07 01:50:07;;;;;;;20.60;12.02;;;3.60;99.90;;;;;;4934205;28;20025;-50
2024/03/07 01:52:33;;;;;;;19.38;11.82;;;3.60;99.90;;;;;;4922912;28;20088;-49
2024/03/07 01:55:00;;;;;;;20.17;12.82;;;3.60;99.90;;;;;;4946111;28;20022;-58
2024/03/07 01:57:25;;;;;;;22.58;11.88;;;3.60;99.90;;;;;;4955620;28;20506;-52
2024/03/07 01:59:52;;;;;;;23.83;11.63;;;3.60;99.90;;;;;;4950640;28;20022;-50
2024/03/07 02:02:20;;;;;;;21.88;12.48;;;3.60;99.90;;;;;;4922947;28;20406;-50
2024/03/07 02:04:46;;;;;;;24.20;12.15;;;3.60;99.90;;;;;;4913023;28;20120;-51
2024/03/07 02:07:11;;;;;;;22.15;11.13;;;3.60;99.90;;;;;;4906132;28;20561;-52
2024/03/07 02:09:38;;;;;;;18.13;10.98;;;3.60;99.90;;;;;;4954744;28;20471;-52
2024/03/07 02:12:04;;;;;;;21.08;11.30;;;3.60;99.90;;;;;;4949908;28;20018;-51
2024/03/07 02:14:29;;;;;;;21.45;9.65;;;3.60;99.90;;;;;;4923096;28;20446;-52
2024/03/07 02:16:58;;;;;;;23.60;11.45;;;3.60;99.90;;;;;;4917655;28;20033;-53
2024/03/07 02:19:24;;;;;;;22.27;10.13;;;3.60;99.90;;;;;;4917159;28;21528;-51
2024/03/07 02:21:50;;;;;;;15.90;9.88;;;3.60;99.90;;;;;;4962849;28;20113;-51
2024/03/07 02:24:16;;;;;;;19.35;10.68;;;3.60;99.90;;;;;;4969493;28;20112;-58
2024/03/07 02:26:41;;;;;;;18.23;10.82;;;3.60;99.90;;;;;;4941108;28;20099;-51
2024/03/07 02:29:07;;;;;;;21.90;10.93;;;3.60;99.90;;;;;;4966889;28;20049;-50
2024/03/07 02:31:36;;;;;;;19.75;10.77;;;3.60;99.90;;;;;;4910479;28;20022;-53
2024/03/07 02:34:03;;;;;;;20.27;10.13;;;3.60;99.90;;;;;;4911060;28;20478;-59
2024/03/07 02:36:29;;;;;;;21.05;10.02;;;3.60;99.90;;;;;;4942474;28;20022;-56
2024/03/07 02:38:55;;;;;;;15.73;9.65;;;3.60;99.90;;;;;;4921652;28;22196;-53
2024/03/07 02:41:20;;;;;;;20.45;9.57;;;3.60;99.90;;;;;;4937573;28;20030;-51
2024/03/07 02:43:46;;;;;;;13.45;8.38;;;3.50;99.90;;;;;;4979263;28;20018;-51
2024/03/07 02:46:11;;;;;;;15.30;9.65;;;3.50;99.90;;;;;;4979087;28;20022;-52
2024/03/07 02:48:38;;;;;;;17.38;8.88;;;3.50;99.90;;;;;;4986266;28;20030;-53
2024/03/07 02:51:07;;;;;;;14.55;8.88;;;3.60;99.90;;;;;;4987019;28;20038;-49
2024/03/07 02:53:34;;;;;;;16.92;9.35;;;3.50;99.90;;;;;;4997745;28;20045;-54
2024/03/07 02:56:00;;;;;;;11.95;8.30;;;3.50;99.90;;;;;;4984283;28;20112;-50
2024/03/07 02:58:26;;;;;;;13.15;8.80;;;3.50;99.90;;;;;;4977091;28;20501;-51
2024/03/07 03:00:59;;;;;;;17.50;9.50;;;3.50;99.90;;;;;;4991178;28;20033;-53
2024/03/07 03:03:26;;;;;;;16.63;8.27;;;3.50;99.90;;;;;;4981517;28;20124;-53
2024/03/07 03:05:51;;;;;;;14.70;8.57;;;3.50;99.90;;;;;;4986544;28;20506;-55
2024/03/07 03:08:17;;;;;;;14.05;9.25;;;3.40;99.90;;;;;;4984303;28;20265;-50
2024/03/07 03:10:44;;;;;;;11.05;8.20;;;3.40;99.90;;;;;;4975594;28;20609;-49
2024/03/07 03:13:10;;;;;;;16.25;9.80;;;3.40;99.90;;;;;;4974059;28;20037;-50
2024/03/07 03:15:37;;;;;;;14.48;8.68;;;3.40;99.90;;;;;;4983376;28;20044;-53
2024/03/07 03:18:05;;;;;;;18.92;8.50;;;3.40;99.90;;;;;;4988949;28;20041;-50
2024/03/07 03:20:34;;;;;;;15.32;8.57;;;3.40;99.90;;;;;;4980935;28;20497;-53
2024/03/07 03:23:02;;;;;;;13.30;8.90;;;3.40;99.90;;;;;;4973544;28;20033;-50
2024/03/07 03:25:28;;;;;;;17.35;8.90;;;3.30;99.90;;;;;;4972742;28;20030;-51
2024/03/07 03:27:53;;;;;;;13.82;8.75;;;3.40;99.90;;;;;;4979632;28;20022;-53
2024/03/07 03:30:19;;;;;;;18.65;8.82;;;3.30;99.90;;;;;;4976101;28;20426;-51
2024/03/07 03:32:46;;;;;;;11.82;8.02;;;3.30;99.90;;;;;;4983934;28;20033;-50
2024/03/07 03:35:13;;;;;;;14.48;8.48;;;3.20;99.90;;;;;;4979232;28;20029;-51
2024/03/07 03:37:45;;;;;;;15.20;8.13;;;3.20;99.90;;;;;;4982873;28;20029;-51
2024/03/07 03:40:11;;;;;;;13.52;8.55;;;3.30;99.90;;;;;;4967198;28;20132;-50
2024/03/07 03:42:40;;;;;;;13.60;8.25;;;3.20;99.90;;;;;;4981128;28;20034;-52
2024/03/07 03:45:07;;;;;;;15.70;8.75;;;3.20;99.90;;;;;;4983500;28;20018;-52
2024/03/07 03:47:39;;;;;;;10.40;8.38;;;3.20;99.90;;;;;;4971079;28;20376;-54
2024/03/07 03:50:06;;;;;;;13.10;8.52;;;3.10;99.90;;;;;;4975479;28;20125;-53
2024/03/07 03:52:32;;;;;;;14.82;8.93;;;3.00;99.90;;;;;;4966757;28;20038;-52
2024/03/07 03:54:58;;;;;;;14.68;7.60;;;3.00;99.90;;;;;;4976341;28;20245;-50
2024/03/07 03:57:25;;;;;;;20.05;9.52;;;3.00;99.90;;;;;;4970990;28;20032;-53
2024/03/07 03:59:51;;;;;;;14.57;9.65;;;2.90;99.90;;;;;;4985993;28;20056;-51
2024/03/07 04:02:17;;;;;;;14.63;8.38;;;2.80;99.90;;;;;;4964007;28;20490;-50
2024/03/07 04:04:42;;;;;;;15.52;8.98;;;2.80;99.90;;;;;;4956708;28;20463;-53
2024/03/07 04:07:08;;;;;;;15.63;9.38;;;2.80;99.90;;;;;;4955479;28;20030;-59
2024/03/07 04:09:33;;;;;;;13.07;9.25;;;2.80;99.90;;;;;;4977154;28;20414;-51
2024/03/07 04:11:59;;;;;;;15.18;9.55;;;2.70;99.90;;;;;;5000182;28;20041;-50
2024/03/07 04:14:26;;;;;;;12.02;8.88;;;2.70;99.90;;;;;;4985799;28;20038;-52
2024/03/07 04:16:56;;;;;;;13.05;8.70;;;2.70;99.90;;;;;;4972342;28;20108;-51
2024/03/07 04:19:22;;;;;;;12.90;8.80;;;2.60;99.90;;;;;;4975940;28;20029;-50
2024/03/07 04:21:47;;;;;;;15.68;7.68;;;2.60;99.90;;;;;;4976230;28;20034;-51
2024/03/07 04:24:13;;;;;;;12.70;9.25;;;2.50;99.90;;;;;;4988886;28;20099;-51
2024/03/07 04:26:41;;;;;;;10.45;8.10;;;2.50;99.90;;;;;;4973694;28;20458;-58
2024/03/07 04:29:08;;;;;;;12.65;8.20;;;2.40;99.90;;;;;;4981935;28;20498;-53
2024/03/07 04:31:34;;;;;;;12.98;9.43;;;2.30;99.90;;;;;;4967910;28;20038;-51
2024/03/07 04:34:00;;;;;;;16.45;9.60;;;2.30;99.90;;;;;;4975458;28;20025;-51
2024/03/07 04:36:25;;;;;;;13.93;9.02;;;2.30;99.90;;;;;;4966688;28;20099;-53
2024/03/07 04:38:52;;;;;;;13.43;8.48;;;2.20;99.90;;;;;;4984904;28;20030;-53
2024/03/07 04:41:18;;;;;;;15.32;9.10;;;2.20;99.90;;;;;;4981368;28;20089;-54
2024/03/07 04:43:44;;;;;;;13.85;8.23;;;2.10;99.90;;;;;;4976922;28;20042;-53
2024/03/07 04:46:10;;;;;;;12.88;8.30;;;2.20;99.90;;;;;;4971392;28;20461;-52
2024/03/07 04:48:35;;;;;;;12.32;8.43;;;2.20;99.90;;;;;;4971392;28;22008;-51
2024/03/07 04:51:01;;;;;;;12.75;8.27;;;2.20;99.90;;;;;;4998811;28;20046;-51
2024/03/07 04:53:27;;;;;;;13.35;8.93;;;2.10;99.90;;;;;;4982377;28;20026;-54
2024/03/07 04:55:52;;;;;;;14.32;8.65;;;2.10;99.90;;;;;;4973626;28;20555;-50
2024/03/07 04:58:18;;;;;;;13.93;8.02;;;2.10;99.90;;;;;;4975503;28;20034;-52
2024/03/07 05:00:44;;;;;;;14.43;8.80;;;2.10;99.90;;;;;;4969884;28;20141;-50
2024/03/07 05:03:11;;;;;;;13.30;8.38;;;2.10;99.90;;;;;;4993053;28;20026;-54
2024/03/07 05:05:36;;;;;;;12.13;8.73;;;2.00;99.90;;;;;;4978349;28;20018;-52
2024/03/07 05:08:04;;;;;;;14.43;8.38;;;2.00;99.90;;;;;;4984736;28;20099;-49
2024/03/07 05:10:30;;;;;;;11.55;8.07;;;2.00;99.90;;;;;;4973827;28;20033;-49
2024/03/07 05:12:58;;;;;;;10.65;7.82;;;1.90;99.90;;;;;;4970326;28;20165;-54
2024/03/07 05:15:25;;;;;;;12.23;8.40;;;1.90;99.90;;;;;;4974516;28;20033;-57
2024/03/07 05:17:52;;;;;;;12.48;8.32;;;1.90;99.90;;;;;;4986745;28;20513;-52
2024/03/07 05:20:18;;;;;;;12.52;7.78;;;1.80;99.90;;;;;;4973072;28;20527;-50
2024/03/07 05:22:47;;;;;;;11.30;7.82;;;1.80;99.90;;;;;;4915627;28;20100;-51
2024/03/07 05:25:13;;;;;;;15.77;6.95;;;1.80;99.90;;;;;;4927849;28;20026;-50
2024/03/07 05:27:39;;;;;;;13.75;8.18;;;1.80;99.90;;;;;;4916999;28;20038;-53
2024/03/07 05:30:05;;;;;;;13.05;8.32;;;1.80;99.90;;;;;;4942606;28;20050;-53
2024/03/07 05:32:34;;;;;;;12.77;8.32;;;1.80;99.90;;;;;;4933096;28;20022;-50
2024/03/07 05:34:59;;;;;;;14.73;9.13;;;1.80;99.90;;;;;;4893166;28;20030;-49
2024/03/07 05:37:25;;;;;;;10.55;7.38;;;1.80;99.90;;;;;;4963822;28;20045;-51
2024/03/07 05:39:52;;;;;;;11.30;8.20;;;1.80;99.90;;;;;;4891275;28;20102;-53
2024/03/07 05:42:18;;;;;;;15.25;8.38;;;1.90;99.90;;;;;;4959174;28;20045;-58
2024/03/07 05:44:44;;;;;;;11.63;8.57;;;1.90;99.90;;;;;;4939948;28;20029;-50
2024/03/07 05:47:12;;;;;;;9.88;7.18;;;1.90;99.90;;;;;;4929397;28;20491;-54
2024/03/07 05:49:37;;;;;;;16.40;8.43;;;1.90;99.90;;;;;;4901860;28;20018;-51
2024/03/07 05:52:05;;;;;;;10.07;7.90;;;1.90;99.90;;;;;;4920737;28;20076;-50
2024/03/07 05:54:32;;;;;;;15.98;8.30;;;1.90;99.90;;;;;;4943063;28;20036;-50
2024/03/07 05:56:57;;;;;;;15.75;8.07;;;1.90;99.90;;;;;;4980303;28;20233;-51
2024/03/07 05:59:23;;;;;;;16.88;8.48;;;1.90;99.90;;;;;;4938782;28;20550;-53
2024/03/07 06:01:48;;;;;;;12.23;7.90;;;1.90;99.90;;;;;;4940599;28;20134;-54
2024/03/07 06:04:15;;;;;;;16.48;8.45;;;1.90;99.90;;;;;;4932890;28;20029;-54
2024/03/07 06:06:41;;;;;;;13.77;8.25;;;1.90;99.90;;;;;;4936154;28;21484;-52
2024/03/07 06:09:09;;;;;;;12.13;8.70;;;1.90;99.90;;;;;;4931178;28;20026;-54
2024/03/07 06:11:38;;;;;;;11.93;8.38;;;1.80;99.90;;;;;;4911549;28;20037;-60
2024/03/07 06:14:06;;;;;;;12.35;7.40;;;1.80;99.90;;;;;;4915194;28;20061;-49
2024/03/07 06:16:36;;;;;;;12.10;7.93;;;1.80;99.90;;;;;;4906903;28;20033;-51
2024/03/07 06:19:02;;;;;;;13.40;7.47;;;1.80;99.90;;;;;;4900216;28;20124;-54
2024/03/07 06:21:30;;;;;;;12.43;7.47;;;1.80;99.90;;;;;;4922150;28;20720;-50
2024/03/07 06:23:59;;;;;;;14.73;8.75;;;1.80;99.90;;;;;;4977893;28;20046;-52
2024/03/07 06:26:47;;;;;;;12.70;8.88;;;1.80;99.90;;;;;;4920620;28;20017;-53
2024/03/07 06:29:15;;;;;;;13.07;8.15;;;1.90;99.90;;;;;;4918702;28;20425;-51
2024/03/07 06:31:41;;;;;;;13.70;8.50;;;1.80;99.90;;;;;;4920638;28;20076;-54
2024/03/07 06:34:08;;;;;;;17.58;9.50;;;1.90;99.90;;;;;;4896117;28;20022;-52
2024/03/07 06:36:34;;;;;;;16.38;9.05;;;1.80;99.90;;;;;;4886718;28;20072;-53
2024/03/07 06:38:59;;;;;;;12.98;8.27;;;1.90;99.90;;;;;;4961307;28;20112;-54
2024/03/07 06:41:25;;;;;;;18.00;10.93;;;1.90;99.90;;;;;;4918540;28;20056;-53
2024/03/07 06:43:53;;;;;;;10.70;8.20;;;1.80;99.90;;;;;;4952338;28;20030;-50
2024/03/07 06:46:19;;;;;;;14.10;8.88;;;1.90;99.90;;;;;;4928927;28;20033;-52
2024/03/07 06:48:45;;;;;;;13.75;8.75;;;1.90;99.90;;;;;;4940553;28;20088;-52
2024/03/07 06:51:11;;;;;;;12.60;8.32;;;1.90;99.90;;;;;;4967066;28;20463;-53
2024/03/07 06:53:37;;;;;;;14.70;9.23;;;2.00;99.90;;;;;;4930002;28;20037;-55
2024/03/07 06:56:02;;;;;;;14.15;9.18;;;2.00;99.90;;;;;;4934894;28;20030;-53
2024/03/07 06:58:28;;;;;;;12.77;8.25;;;1.90;99.90;;;;;;4954816;28;20038;-50
2024/03/07 07:00:55;;;;;;;11.38;7.57;;;1.90;99.90;;;;;;4926739;28;20056;-53
2024/03/07 07:03:22;;;;;;;14.55;9.02;;;2.00;99.90;;;;;;4941818;28;21314;-58
2024/03/07 07:05:48;;;;;;;13.30;8.40;;;2.00;99.90;;;;;;4951794;28;20037;-54
2024/03/07 07:08:14;;;;;;;11.93;7.95;;;2.10;99.90;;;;;;4972214;28;20049;-53
2024/03/07 07:10:42;;;;;;;13.73;7.32;;;2.10;99.90;;;;;;4985609;28;20034;-50
2024/03/07 07:13:08;;;;;;;12.02;8.63;;;2.10;99.90;;;;;;4954242;28;20065;-52
2024/03/07 07:15:36;;;;;;;13.45;8.18;;;2.10;99.90;;;;;;4939767;28;20056;-51
2024/03/07 07:18:02;;;;;;;11.43;7.93;;;2.10;99.90;;;;;;4936453;28;20465;-54
2024/03/07 07:20:28;;;;;;;13.02;7.90;;;2.10;99.90;;;;;;4962182;28;20049;-51
2024/03/07 07:22:54;;;;;;;9.82;7.10;;;2.10;99.90;;;;;;4976223;28;20034;-52
2024/03/07 07:25:21;;;;;;;10.15;7.63;;;2.20;99.90;;;;;;4931273;28;20103;-51
2024/03/07 07:27:48;;;;;;;11.43;7.45;;;2.20;99.90;;;;;;4967960;28;20430;-53
2024/03/07 07:30:16;;;;;;;15.23;8.27;;;2.20;99.90;;;;;;4894572;28;20026;-53
2024/03/07 07:32:42;;;;;;;14.05;7.95;;;2.20;99.90;;;;;;4944375;28;20033;-52
2024/03/07 07:35:11;;;;;;;11.68;8.02;;;2.20;99.90;;;;;;4974236;28;20083;-54
2024/03/07 07:37:40;;;;;;;10.93;7.95;;;2.20;99.90;;;;;;4961029;28;21630;-53
2024/03/07 07:40:08;;;;;;;14.25;8.50;;;2.30;99.90;;;;;;4933100;28;20025;-50
2024/03/07 07:42:38;;;;;;;10.93;7.85;;;2.30;99.90;;;;;;4947540;28;20120;-49
2024/03/07 07:45:06;;;;;;;12.43;8.43;;;2.30;99.90;;;;;;4957894;28;20053;-51
2024/03/07 07:47:32;;;;;;;11.27;7.88;;;2.30;99.90;;;;;;4957300;28;20745;-53
2024/03/07 07:49:58;;;;;;;13.80;9.00;;;2.40;99.90;;;;;;4932816;28;20037;-58
2024/03/07 07:52:24;;;;;;;10.18;7.55;;;2.40;99.90;;;;;;4961624;28;20034;-53
2024/03/07 07:54:49;;;;;;;15.73;8.68;;;2.50;99.90;;;;;;4957735;28;20033;-52
2024/03/07 07:57:15;;;;;;;13.82;8.18;;;2.50;99.90;;;;;;4948494;28;20045;-51
2024/03/07 07:59:40;;;;;;;12.13;7.82;;;2.60;99.90;;;;;;4928986;28;20029;-51
2024/03/07 08:02:06;;;;;;;12.38;8.73;;;2.60;99.90;;;;;;4951423;28;20022;-52
2024/03/07 08:04:32;;;;;;;19.85;9.25;;;2.60;99.90;;;;;;4943324;28;20529;-51
2024/03/07 08:06:58;;;;;;;11.63;8.27;;;2.60;99.90;;;;;;4966365;28;20030;-53
2024/03/07 08:09:23;;;;;;;13.15;8.43;;;2.70;99.90;;;;;;4941673;28;20513;-53
2024/03/07 08:11:49;;;;;;;9.85;7.28;;;2.80;99.90;;;;;;4934578;28;20072;-52
2024/03/07 08:14:15;;;;;;;15.65;8.68;;;2.80;99.90;;;;;;4946427;28;22044;-52
2024/03/07 08:16:41;;;;;;;16.00;8.52;;;2.90;99.90;;;;;;4953208;28;20720;-54
2024/03/07 08:19:08;;;;;;;11.13;7.68;;;3.00;99.90;;;;;;4957141;28;20034;-53
2024/03/07 08:21:34;;;;;;;11.40;7.72;;;3.00;99.90;;;;;;4933413;28;20037;-53
2024/03/07 08:24:03;;;;;;;16.25;8.75;;;3.10;99.90;;;;;;4944471;28;21779;-50
2024/03/07 08:26:29;;;;;;;10.27;7.32;;;3.10;99.90;;;;;;4941347;28;20018;-54
2024/03/07 08:28:54;;;;;;;13.98;8.38;;;3.10;99.90;;;;;;4958966;28;20071;-53
2024/03/07 08:31:20;;;;;;;10.13;7.82;;;3.20;99.90;;;;;;4915621;28;20140;-52
2024/03/07 08:33:46;;;;;;;14.02;8.32;;;3.20;99.90;;;;;;4958899;28;20125;-51
2024/03/07 08:36:11;;;;;;;12.82;8.68;;;3.20;99.90;;;;;;4923538;28;20113;-51
2024/03/07 08:38:37;;;;;;;14.77;9.52;;;3.30;99.90;;;;;;4938383;28;20026;-53
2024/03/07 08:41:03;;;;;;;14.10;8.80;;;3.30;99.90;;;;;;4943505;28;20026;-57
2024/03/07 08:43:28;;;;;;;12.85;8.77;;;3.30;99.90;;;;;;4958168;28;20022;-51
2024/03/07 08:45:54;;;;;;;12.32;8.88;;;3.30;99.90;;;;;;4951291;28;20061;-51
2024/03/07 08:48:19;;;;;;;14.10;10.00;;;3.30;99.90;;;;;;4944245;28;20053;-53
2024/03/07 08:50:45;;;;;;;16.08;10.50;;;3.40;99.90;;;;;;4921741;28;20125;-50
2024/03/07 08:53:10;;;;;;;16.17;9.35;;;3.40;99.90;;;;;;4941080;28;20045;-51
2024/03/07 08:55:36;;;;;;;15.10;9.98;;;3.50;99.90;;;;;;4945290;28;21624;-49
2024/03/07 08:58:02;;;;;;;15.40;8.90;;;3.40;99.90;;;;;;4910107;28;20120;-54
2024/03/07 09:00:27;;;;;;;15.20;9.50;;;3.50;99.90;;;;;;4917990;28;20521;-54
2024/03/07 09:02:54;;;;;;;12.45;9.07;;;3.50;99.90;;;;;;4928388;28;20161;-50
2024/03/07 09:05:23;;;;;;;12.63;8.77;;;3.40;99.90;;;;;;4942883;28;21732;-53
2024/03/07 09:07:49;;;;;;;12.52;8.45;;;3.40;99.90;;;;;;4956840;28;20041;-54
2024/03/07 09:10:15;;;;;;;14.05;8.82;;;3.40;99.90;;;;;;4967034;28;20080;-49
2024/03/07 09:12:41;;;;;;;11.85;8.20;;;3.30;99.90;;;;;;4910150;28;20038;-51
2024/03/07 09:15:07;;;;;;;13.85;8.90;;;3.30;99.90;;;;;;4945473;28;20038;-53
2024/03/07 09:17:33;;;;;;;12.05;8.75;;;3.20;99.90;;;;;;4929875;28;20022;-53
2024/03/07 09:19:58;;;;;;;16.73;9.02;;;3.00;99.90;;;;;;4950401;28;20129;-57
2024/03/07 09:22:25;;;;;;;14.50;9.05;;;3.00;99.90;;;;;;4932871;28;20113;-52
2024/03/07 09:24:50;;;;;;;12.23;8.85;;;3.00;99.90;;;;;;4960528;28;20628;-53
2024/03/07 09:27:19;;;;;;;17.02;9.55;;;3.00;99.90;;;;;;4943362;28;20132;-53
2024/03/07 09:29:47;;;;;;;15.90;9.82;;;3.00;99.90;;;;;;4932110;28;20029;-53
2024/03/07 09:32:12;;;;;;;13.52;9.40;;;3.00;99.90;;;;;;4921050;28;20025;-52
2024/03/07 09:34:38;;;;;;;13.65;9.82;;;3.00;99.90;;;;;;4982292;28;20044;-54
2024/03/07 09:37:04;;;;;;;19.77;11.20;;;3.00;99.90;;;;;;4946597;28;20309;-50
2024/03/07 09:39:34;;;;;;;16.15;10.55;;;3.00;99.90;;;;;;4936292;28;20022;-49
2024/03/07 09:42:05;;;;;;;18.25;11.23;;;3.00;99.90;;;;;;4936533;28;20026;-52
2024/03/07 09:44:33;;;;;;;14.15;9.60;;;3.10;99.90;;;;;;4932361;28;20045;-54
2024/03/07 09:47:00;;;;;;;13.77;10.50;;;3.00;99.90;;;;;;4946155;28;20593;-58
2024/03/07 09:49:28;;;;;;;16.83;11.23;;;3.00;99.90;;;;;;4940012;28;20037;-50
2024/03/07 09:51:56;;;;;;;17.05;11.02;;;3.00;99.90;;;;;;4938060;28;21569;-51
2024/03/07 09:54:24;;;;;;;17.17;11.43;;;3.10;99.90;;;;;;4929108;28;20014;-49
2024/03/07 09:56:54;;;;;;;18.17;11.52;;;3.00;99.90;;;;;;4909451;28;20486;-51
2024/03/07 09:59:23;;;;;;;19.73;12.15;;;3.00;99.90;;;;;;4904074;28;22342;-53
2024/03/07 10:01:53;;;;;;;16.15;10.57;;;3.10;99.90;;;;;;4959172;28;20033;-52
2024/03/07 10:04:29;;;;;;;17.95;11.50;;;3.10;99.90;;;;;;4932662;28;20551;-55
2024/03/07 10:06:55;;;;;;;19.52;11.13;;;3.10;99.90;;;;;;4942918;28;20041;-50
2024/03/07 10:09:22;;;;;;;18.00;12.13;;;3.10;99.90;;;;;;4923989;28;20469;-53
2024/03/07 10:12:02;;;;;;;17.73;11.32;;;3.10;99.90;;;;;;4904488;28;20033;-50
2024/03/07 10:14:31;;;;;;;22.95;12.00;;;3.10;99.90;;;;;;4904426;28;20501;-52
2024/03/07 10:16:57;;;;;;;20.38;11.68;;;3.20;99.90;;;;;;4940024;28;20030;-58
2024/03/07 10:19:23;;;;;;;19.73;11.50;;;3.20;99.90;;;;;;4928648;28;20056;-51
2024/03/07 10:21:48;;;;;;;18.10;11.55;;;3.30;99.90;;;;;;4943640;28;20041;-51
2024/03/07 10:24:14;;;;;;;20.40;11.93;;;3.30;99.90;;;;;;4929989;28;20026;-50
2024/03/07 10:26:40;;;;;;;17.33;11.65;;;3.40;99.90;;;;;;4929409;28;20026;-50
2024/03/07 10:29:07;;;;;;;18.30;11.15;;;3.40;99.90;;;;;;4899227;28;20052;-57
2024/03/07 10:31:34;;;;;;;22.27;12.40;;;3.50;99.90;;;;;;4944777;28;20032;-51
2024/03/07 10:34:04;;;;;;;16.65;12.00;;;3.60;99.90;;;;;;4929442;28;20022;-53
2024/03/07 10:36:34;;;;;;;18.33;11.57;;;3.60;99.90;;;;;;4959957;28;20091;-52
2024/03/07 10:39:01;;;;;;;15.65;11.63;;;3.60;99.90;;;;;;4905395;28;20546;-51
2024/03/07 10:41:30;;;;;;;22.13;12.95;;;3.70;99.90;;;;;;4901499;28;20682;-49
2024/03/07 10:43:58;;;;;;;18.15;11.35;;;3.70;99.90;;;;;;4967691;28;20045;-50
2024/03/07 10:46:26;;;;;;;18.83;11.82;;;3.80;99.90;;;;;;4920268;28;20017;-51
2024/03/07 10:48:58;;;;;;;18.23;12.23;;;3.90;99.90;;;;;;4925927;28;20025;-53
2024/03/07 10:51:39;;;;;;;20.08;11.57;;;4.00;99.90;;;;;;4916188;28;20046;-53
2024/03/07 10:54:05;;;;;;;16.65;11.68;;;4.10;99.90;;;;;;4913600;28;20587;-54
2024/03/07 10:57:08;;;;;;;17.35;10.73;;;4.10;99.90;;;;;;4886634;28;20046;-53
2024/03/07 10:59:39;;;;;;;20.15;11.38;;;4.30;99.90;;;;;;4910361;28;20045;-54
2024/03/07 11:02:24;;;;;;;21.50;11.25;;;4.40;99.90;;;;;;4909029;28;20076;-57
2024/03/07 11:04:54;;;;;;;17.30;11.35;;;4.40;99.90;;;;;;4943995;28;20418;-53
2024/03/07 11:07:22;;;;;;;17.83;11.38;;;4.50;99.90;;;;;;4897265;28;20030;-58
2024/03/07 11:09:51;;;;;;;15.43;11.02;;;4.50;99.90;;;;;;4922121;28;20490;-52
2024/03/07 11:12:20;;;;;;;18.75;12.18;;;4.50;99.90;;;;;;4910577;28;20033;-51
2024/03/07 11:14:48;;;;;;;15.07;10.85;;;4.50;99.90;;;;;;4893616;28;20552;-52
2024/03/07 11:17:15;;;;;;;19.35;10.65;;;4.40;99.90;;;;;;4896993;28;20495;-52
2024/03/07 11:19:42;;;;;;;19.80;12.52;;;4.50;99.90;;;;;;4933876;28;21461;-52
2024/03/07 11:22:17;;;;;;;20.92;12.60;;;4.60;99.90;;;;;;4922609;28;20026;-51
2024/03/07 11:24:43;;;;;;;23.65;13.40;;;4.70;99.90;;;;;;4895437;28;20034;-53
2024/03/07 11:27:11;;;;;;;19.75;12.65;;;4.70;99.90;;;;;;4908500;28;20445;-52
2024/03/07 11:29:48;;;;;;;21.85;12.07;;;4.70;99.90;;;;;;4871948;28;20386;-51
2024/03/07 11:32:14;;;;;;;20.05;11.15;;;4.70;99.90;;;;;;4900506;28;20838;-50
2024/03/07 11:34:41;;;;;;;17.70;12.02;;;4.80;99.90;;;;;;4934984;28;21215;-51
2024/03/07 11:37:17;;;;;;;17.65;12.70;;;4.80;99.90;;;;;;4920294;28;20022;-52
2024/03/07 11:39:48;;;;;;;18.90;11.20;;;4.90;99.90;;;;;;4888739;28;20054;-53
2024/03/07 11:42:25;;;;;;;22.17;12.27;;;4.90;99.90;;;;;;4912992;28;20034;-49
2024/03/07 11:44:51;;;;;;;24.33;12.68;;;5.00;99.90;;;;;;4903229;28;20113;-51
2024/03/07 11:47:18;;;;;;;20.20;12.70;;;5.10;99.90;;;;;;4899394;28;21897;-52
2024/03/07 11:49:48;;;;;;;16.92;12.02;;;5.10;99.90;;;;;;4925080;28;22148;-52
2024/03/07 11:52:16;;;;;;;17.98;11.68;;;5.10;99.90;;;;;;4937394;28;20037;-53
2024/03/07 11:54:46;;;;;;;20.02;11.85;;;5.20;99.90;;;;;;4915360;28;20041;-51
2024/03/07 11:57:26;;;;;;;19.60;12.23;;;5.30;99.90;;;;;;4901334;28;20025;-50
2024/03/07 11:59:52;;;;;;;18.85;12.38;;;5.30;99.90;;;;;;4912150;28;20014;-53
2024/03/07 12:02:21;;;;;;;18.55;12.13;;;5.40;99.90;;;;;;4870631;28;21599;-52
2024/03/07 12:04:47;;;;;;;21.85;12.43;;;5.40;99.90;;;;;;4935829;28;20025;-50
2024/03/07 12:07:12;;;;;;;20.25;12.40;;;5.40;99.90;;;;;;4946030;28;20054;-51
2024/03/07 12:09:45;;;;;;;18.23;12.43;;;5.50;99.90;;;;;;4937470;28;20461;-51
2024/03/07 12:12:12;;;;;;;20.88;12.68;;;5.40;99.90;;;;;;4899457;28;20018;-55
2024/03/07 12:14:38;;;;;;;21.10;12.75;;;5.40;99.90;;;;;;4903726;28;20025;-54
2024/03/07 12:17:05;;;;;;;21.35;12.90;;;5.40;99.90;;;;;;4908089;28;20057;-58
2024/03/07 12:19:35;;;;;;;17.52;11.73;;;5.50;99.90;;;;;;4935290;28;20022;-50
2024/03/07 12:22:03;;;;;;;20.85;12.02;;;5.50;99.90;;;;;;4924554;28;20018;-50
2024/03/07 12:24:29;;;;;;;18.50;12.65;;;5.50;99.90;;;;;;4946407;28;20030;-51
2024/03/07 12:27:06;;;;;;;21.67;12.95;;;5.50;99.90;;;;;;4906647;28;20034;-51
2024/03/07 12:29:32;;;;;;;20.08;12.48;;;5.60;99.90;;;;;;4844547;28;20065;-53
2024/03/07 12:31:59;;;;;;;21.10;12.30;;;5.60;99.90;;;;;;4919431;28;20045;-54
2024/03/07 12:34:26;;;;;;;21.77;12.80;;;5.70;99.90;;;;;;4956073;28;20026;-50
2024/03/07 12:36:55;;;;;;;19.80;12.73;;;5.70;99.90;;;;;;4933477;28;20022;-50
2024/03/07 12:39:25;;;;;;;16.80;12.57;;;5.70;99.90;;;;;;4893686;28;20088;-52
2024/03/07 12:41:55;;;;;;;21.35;13.23;;;5.80;99.90;;;;;;4851906;28;20532;-53